Time;durP1;ratioP1;P1;durP2;ratioP2;P2;SDS_P1;SDS_P2;PMS_P1;PMS_P2;Temp;Humidity;BMP_temperature;BMP_pressure;BME280_temperature;BME280_humidity;BME280_pressure;Samples;Min_cycle;Max_cycle;Signal;HPM_P1;HPM_P2
2021/01/12 00:02:25;;;;;;;138.07;56.98;;;;;;;-1.18;81.90;100535.97;1628950;85;25824;-79
2021/01/12 00:04:53;;;;;;;155.75;63.80;;;;;;;-1.19;81.88;100535.59;1651336;85;25769;-80
2021/01/12 00:07:22;;;;;;;144.15;60.12;;;;;;;-1.20;81.81;100540.03;1627238;85;25877;-79
2021/01/12 00:09:53;;;;;;;136.75;57.27;;;;;;;-1.19;81.63;100531.18;1620383;85;25825;-79
2021/01/12 00:12:20;;;;;;;134.90;52.83;;;;;;;-1.19;81.63;100531.18;1631088;85;27341;-79
2021/01/12 00:14:48;;;;;;;151.70;60.75;;;;;;;-1.21;81.68;100529.61;1631793;87;25875;-81
2021/01/12 00:17:16;;;;;;;148.00;62.20;;;;;;;-1.21;81.70;100523.04;1620803;85;25574;-80
2021/01/12 00:19:44;;;;;;;153.47;60.60;;;;;;;-1.21;81.62;100525.20;1619614;87;25804;-81
2021/01/12 00:22:15;;;;;;;141.03;57.27;;;;;;;-1.25;81.61;100518.97;1649196;85;26154;-80
2021/01/12 00:24:48;;;;;;;134.20;55.25;;;;;;;-1.20;81.56;100520.33;1685995;84;28713;-81
2021/01/12 00:27:19;;;;;;;123.05;52.90;;;;;;;-1.22;81.35;100513.00;1642169;85;25926;-79
2021/01/12 00:29:47;;;;;;;136.03;57.30;;;;;;;-1.24;81.21;100512.28;1684756;84;25809;-80
2021/01/12 00:32:21;;;;;;;133.20;59.40;;;;;;;-1.25;81.33;100505.36;1654833;84;25615;-80
2021/01/12 00:34:49;;;;;;;123.65;53.30;;;;;;;-1.24;81.31;100503.08;1691907;84;25885;-81
2021/01/12 00:37:22;;;;;;;129.65;55.28;;;;;;;-1.25;80.95;100500.11;1668353;84;28476;-79
2021/01/12 00:39:50;;;;;;;133.18;57.38;;;;;;;-1.26;81.01;100500.23;1667010;84;25861;-79
2021/01/12 00:42:17;;;;;;;118.13;51.02;;;;;;;-1.27;80.87;100502.02;1626589;85;26032;-81
2021/01/12 00:44:45;;;;;;;132.75;57.35;;;;;;;-1.32;80.84;100488.37;1659827;85;26165;-80
2021/01/12 00:47:12;;;;;;;108.52;47.03;;;;;;;-1.30;80.74;100485.15;1619604;85;26344;-82
2021/01/12 00:49:39;;;;;;;116.75;50.28;;;;;;;-1.34;80.72;100480.23;1626703;85;27555;-81
2021/01/12 00:52:11;;;;;;;125.10;53.73;;;;;;;-1.34;80.72;100480.23;1639070;85;25927;-79
2021/01/12 00:54:40;;;;;;;116.17;50.38;;;;;;;-1.31;80.58;100485.27;1641554;85;25425;-80
2021/01/12 00:57:07;;;;;;;125.55;54.48;;;;;;;-1.42;80.43;100466.84;1626213;85;25812;-80
2021/01/12 00:59:35;;;;;;;113.37;51.10;;;;;;;-1.42;80.43;100466.84;1612389;85;26200;-81
2021/01/12 01:02:06;;;;;;;111.10;50.03;;;;;;;-1.37;80.43;100479.17;1641756;84;27334;-81
2021/01/12 01:04:33;;;;;;;;;;;;;;;-1.38;80.45;100474.37;1689782;84;26069;-80
2021/01/12 01:07:00;;;;;;;106.43;47.00;;;;;;;-1.39;80.32;100467.44;1591085;87;25852;-80
2021/01/12 01:09:27;;;;;;;107.47;47.17;;;;;;;-1.41;80.43;100465.91;1605216;87;26004;-80
2021/01/12 01:11:55;;;;;;;110.75;48.13;;;;;;;-1.45;80.19;100461.33;1642266;85;25960;-80
2021/01/12 01:14:22;;;;;;;112.95;49.55;;;;;;;-1.45;80.19;100461.33;1636610;85;27538;-80
2021/01/12 01:16:50;;;;;;;104.07;45.98;;;;;;;-1.44;80.15;100441.16;1605847;87;25785;-79
2021/01/12 01:19:17;;;;;;;114.85;51.18;;;;;;;-1.44;80.15;100441.16;1631605;85;25859;-79
2021/01/12 01:21:50;;;;;;;107.63;48.55;;;;;;;-1.51;80.09;100427.64;1655813;84;25945;-80
2021/01/12 01:24:18;;;;;;;106.17;48.10;;;;;;;-1.44;80.06;100435.91;1635709;84;25908;-78
2021/01/12 01:26:45;;;;;;;102.30;43.85;;;;;;;-1.45;80.02;100432.44;1681458;83;27611;-80
2021/01/12 01:29:13;;;;;;;104.85;46.55;;;;;;;-1.45;79.88;100414.55;1684378;83;26545;-80
2021/01/12 01:31:42;;;;;;;98.40;44.38;;;;;;;-1.45;79.88;100414.55;1673877;83;25957;-79
2021/01/12 01:34:10;;;;;;;110.15;49.38;;;;;;;-1.47;79.62;100409.39;1653896;83;34987;-80
2021/01/12 01:36:38;;;;;;;96.78;44.18;;;;;;;-1.47;79.83;100405.91;1677431;83;26150;-80
2021/01/12 01:39:06;;;;;;;96.78;44.25;;;;;;;-1.46;79.89;100408.92;1683656;83;27697;-80
2021/01/12 01:41:33;;;;;;;103.20;46.73;;;;;;;-1.47;79.50;100398.88;1656116;83;25982;-80
2021/01/12 01:44:02;;;;;;;90.65;43.42;;;;;;;-1.47;79.50;100398.88;1686125;83;25797;-79
2021/01/12 01:46:29;;;;;;;103.25;46.05;;;;;;;-1.48;79.75;100383.25;1676153;83;26418;-80
2021/01/12 01:48:56;;;;;;;107.83;49.08;;;;;;;-1.48;79.75;100383.25;1683829;83;25783;-80
2021/01/12 01:51:26;;;;;;;96.53;43.00;;;;;;;-1.46;79.84;100373.45;1690931;84;27381;-81
2021/01/12 01:53:54;;;;;;;88.87;41.25;;;;;;;-1.46;79.95;100368.20;1650883;83;25757;-82
2021/01/12 01:56:26;;;;;;;88.80;38.53;;;;;;;-1.46;79.81;100372.98;1676037;83;26011;-80
2021/01/12 01:58:53;;;;;;;95.03;44.45;;;;;;;-1.47;79.70;100364.73;1701370;82;26448;-80
2021/01/12 02:01:20;;;;;;;95.47;45.65;;;;;;;-1.52;80.00;100350.30;1642462;84;26038;-81
2021/01/12 02:04:12;;;;;;;97.20;45.45;;;;;;;-1.46;79.73;100357.23;1665755;84;27546;-80
2021/01/12 02:06:43;;;;;;;103.17;47.58;;;;;;;-1.47;79.58;100342.88;1687820;84;26130;-81
2021/01/12 02:09:49;;;;;;;103.27;47.50;;;;;;;-1.49;79.55;100332.50;1652647;84;25862;-80
2021/01/12 02:12:34;;;;;;;98.33;45.85;;;;;;;-1.48;79.59;100332.03;1661043;85;26405;-81
2021/01/12 02:15:04;;;;;;;101.25;48.52;;;;;;;-1.51;79.65;100323.91;1683171;82;25750;-82
2021/01/12 02:17:32;;;;;;;93.95;44.27;;;;;;;-1.53;79.52;100310.52;1704115;83;27539;-79
2021/01/12 02:20:00;;;;;;;101.62;46.20;;;;;;;-1.54;79.53;100309.70;1665275;84;26175;-79
2021/01/12 02:22:28;;;;;;;102.87;44.50;;;;;;;-1.53;79.47;100301.33;1643007;84;26670;-79
2021/01/12 02:24:56;;;;;;;99.42;45.48;;;;;;;-1.59;79.61;100285.58;1627885;84;26417;-81
2021/01/12 02:27:24;;;;;;;91.97;41.58;;;;;;;-1.51;79.62;100293.70;1665638;84;25877;-80
2021/01/12 02:29:52;;;;;;;92.00;44.40;;;;;;;-1.51;79.63;100291.07;1655082;84;28213;-79
2021/01/12 02:32:20;;;;;;;99.20;44.03;;;;;;;-1.51;79.60;100288.45;1662564;84;26083;-80
2021/01/12 02:34:49;;;;;;;88.72;39.80;;;;;;;-1.52;79.55;100284.63;1650399;85;25883;-81
2021/01/12 02:37:17;;;;;;;90.67;40.85;;;;;;;-1.50;79.60;100280.94;1654777;84;25903;-80
2021/01/12 02:39:48;;;;;;;88.07;39.08;;;;;;;-1.50;79.57;100289.28;1656519;84;25798;-81
2021/01/12 02:42:17;;;;;;;;;;;;;;;-1.51;79.49;100290.23;1659881;84;26952;-80
2021/01/12 02:44:44;;;;;;;77.85;34.95;;;;;;;-1.51;79.45;100289.76;1688423;84;25937;-82
2021/01/12 02:47:12;;;;;;;89.22;38.98;;;;;;;-1.53;79.37;100271.13;1622059;84;25903;-81
2021/01/12 02:49:39;;;;;;;88.52;40.33;;;;;;;-1.53;79.37;100271.13;1662117;84;25871;-81
2021/01/12 02:52:06;;;;;;;93.80;41.00;;;;;;;-1.53;79.53;100264.56;1647217;84;26565;-80
2021/01/12 02:54:34;;;;;;;87.35;41.85;;;;;;;-1.61;79.40;100246.31;1656059;84;27638;-80
2021/01/12 02:57:01;;;;;;;85.67;41.50;;;;;;;-1.58;79.37;100247.84;1625557;84;25445;-81
2021/01/12 02:59:29;;;;;;;101.42;46.40;;;;;;;-1.59;79.45;100248.34;1639420;85;25797;-80
2021/01/12 03:01:56;;;;;;;99.55;41.70;;;;;;;-1.58;79.67;100234.23;1639157;84;26017;-79
2021/01/12 03:04:23;;;;;;;87.37;39.13;;;;;;;-1.54;79.52;100237.95;1693439;84;25725;-79
2021/01/12 03:06:51;;;;;;;93.20;43.23;;;;;;;-1.54;79.52;100237.95;1648679;84;28592;-80
2021/01/12 03:09:18;;;;;;;100.38;44.25;;;;;;;-1.55;79.53;100230.55;1660193;84;26440;-80
2021/01/12 03:11:52;;;;;;;101.78;43.80;;;;;;;-1.57;79.35;100218.02;1648715;85;25994;-81
2021/01/12 03:14:19;;;;;;;102.82;45.75;;;;;;;-1.59;79.44;100197.61;1662486;84;25761;-81
2021/01/12 03:16:47;;;;;;;93.47;41.50;;;;;;;-1.59;79.44;100197.61;1635534;84;26211;-80
2021/01/12 03:19:14;;;;;;;106.75;46.65;;;;;;;-1.67;79.60;100192.13;1642389;84;27601;-81
2021/01/12 03:21:41;;;;;;;89.90;38.25;;;;;;;-1.64;79.50;100208.93;1658195;84;26443;-80
2021/01/12 03:24:09;;;;;;;93.47;40.98;;;;;;;-1.66;79.42;100208.22;1696664;84;25539;-79
2021/01/12 03:26:37;;;;;;;94.55;42.35;;;;;;;-1.66;79.42;100208.22;1646343;84;25826;-81
2021/01/12 03:29:05;;;;;;;101.62;46.02;;;;;;;-1.66;79.57;100206.91;1659762;84;25444;-79
2021/01/12 03:31:32;;;;;;;97.08;40.63;;;;;;;-1.64;79.20;100185.30;1664126;84;27813;-80
2021/01/12 03:33:59;;;;;;;94.77;42.67;;;;;;;-1.64;79.20;100185.30;1666400;83;25900;-80
2021/01/12 03:36:27;;;;;;;98.40;44.77;;;;;;;-1.64;79.59;100187.45;1658899;84;25496;-81
2021/01/12 03:38:54;;;;;;;96.08;43.70;;;;;;;-1.64;79.50;100179.58;1672345;84;26298;-80
2021/01/12 03:41:21;;;;;;;89.90;39.60;;;;;;;-1.64;79.54;100180.05;1704461;83;26423;-80
2021/01/12 03:43:49;;;;;;;100.87;45.95;;;;;;;-1.69;79.63;100159.90;1635686;84;28452;-81
2021/01/12 03:46:16;;;;;;;87.70;41.05;;;;;;;-1.69;79.63;100159.90;1654356;83;26419;-80
2021/01/12 03:48:44;;;;;;;102.72;46.13;;;;;;;-1.70;79.49;100143.30;1670561;83;25812;-81
2021/01/12 03:51:12;;;;;;;104.97;45.73;;;;;;;-1.65;79.39;100148.20;1670713;83;26557;-79
2021/01/12 03:53:39;;;;;;;96.78;43.20;;;;;;;-1.64;79.40;100132.78;1644592;83;25909;-79
2021/01/12 03:56:07;;;;;;;89.92;41.08;;;;;;;-1.67;79.40;100144.86;1653601;84;27627;-79
2021/01/12 03:58:36;;;;;;;94.87;42.85;;;;;;;-1.74;79.58;100130.06;1675767;83;25791;-80
2021/01/12 04:01:03;;;;;;;91.20;40.40;;;;;;;-1.72;79.51;100147.00;1710545;83;25745;-79
2021/01/12 04:03:31;;;;;;;93.67;39.60;;;;;;;-1.72;79.51;100147.00;1645387;83;25437;-80
2021/01/12 04:06:01;;;;;;;91.22;40.17;;;;;;;-1.68;79.62;100148.42;1650277;84;25889;-79
2021/01/12 04:08:28;;;;;;;81.35;34.23;;;;;;;-1.68;79.62;100148.42;1668953;84;27577;-81
2021/01/12 04:10:56;;;;;;;95.77;42.30;;;;;;;-1.68;79.58;100132.67;1703615;83;25994;-81
2021/01/12 04:13:23;;;;;;;106.67;46.00;;;;;;;-1.66;79.67;100125.50;1632669;84;25769;-79
2021/01/12 04:15:50;;;;;;;99.28;42.43;;;;;;;-1.65;79.95;100130.62;1649036;84;25789;-80
2021/01/12 04:18:18;;;;;;;97.67;46.23;;;;;;;-1.63;79.92;100126.59;1653080;83;25864;-79
2021/01/12 04:20:45;;;;;;;100.02;43.08;;;;;;;-1.62;79.64;100121.20;1681893;83;27714;-82
2021/01/12 04:23:12;;;;;;;99.42;42.80;;;;;;;-1.62;79.64;100121.20;1643740;83;25802;-81
2021/01/12 04:25:40;;;;;;;95.20;43.45;;;;;;;-1.60;79.73;100114.05;1661378;84;25778;-80
2021/01/12 04:28:07;;;;;;;104.03;45.45;;;;;;;-1.60;79.61;100111.42;1663277;83;26298;-81
2021/01/12 04:30:35;;;;;;;89.17;38.00;;;;;;;-1.60;79.61;100111.42;1691085;83;25719;-79
2021/01/12 04:33:02;;;;;;;106.55;46.77;;;;;;;-1.58;79.76;100105.56;1632480;84;27750;-80
2021/01/12 04:35:30;;;;;;;101.18;44.98;;;;;;;-1.53;79.51;100106.98;1653349;84;25960;-81
2021/01/12 04:37:57;;;;;;;95.92;41.68;;;;;;;-1.47;79.41;100097.30;1618936;84;26092;-81
2021/01/12 04:40:26;;;;;;;94.45;44.53;;;;;;;-1.44;79.41;100091.34;1691055;82;25882;-80
2021/01/12 04:42:56;;;;;;;97.62;45.98;;;;;;;-1.40;79.31;100091.45;1677322;83;26362;-82
2021/01/12 04:45:24;;;;;;;103.80;44.80;;;;;;;-1.37;79.14;100086.43;1653750;84;27627;-82
2021/01/12 04:47:52;;;;;;;98.33;42.90;;;;;;;-1.33;79.16;100080.81;1667315;84;25729;-78
2021/01/12 04:50:19;;;;;;;101.22;44.13;;;;;;;-1.26;79.05;100077.20;1691402;84;25786;-80
2021/01/12 04:52:49;;;;;;;91.00;41.10;;;;;;;-1.24;79.21;100064.27;1632690;84;25818;-80
2021/01/12 04:55:21;;;;;;;94.70;42.05;;;;;;;-1.22;79.04;100067.61;1619677;84;25923;-80
2021/01/12 04:57:50;;;;;;;98.60;42.78;;;;;;;-1.18;79.12;100061.17;1654198;84;27354;-80
2021/01/12 05:00:25;;;;;;;99.50;44.15;;;;;;;-1.14;79.05;100059.12;1691002;83;25848;-80
2021/01/12 05:03:08;;;;;;;106.12;44.27;;;;;;;-1.12;78.82;100053.25;1633787;84;26508;-79
2021/01/12 05:05:38;;;;;;;96.78;44.70;;;;;;;-1.12;78.72;100054.09;1654375;84;25855;-80
2021/01/12 05:08:13;;;;;;;94.65;43.75;;;;;;;-1.13;78.72;100048.47;1667436;84;25790;-80
2021/01/12 05:10:41;;;;;;;97.47;43.15;;;;;;;-1.13;78.72;100040.59;1691160;84;27530;-80
2021/01/12 05:13:11;;;;;;;89.58;41.02;;;;;;;-1.13;78.53;100042.38;1632870;84;25872;-81
2021/01/12 05:15:40;;;;;;;83.33;36.10;;;;;;;-1.11;78.60;100039.17;1653240;84;25761;-80
2021/01/12 05:18:15;;;;;;;103.27;44.05;;;;;;;-1.22;78.24;100032.14;1667167;84;26519;-82
2021/01/12 05:20:47;;;;;;;97.17;45.25;;;;;;;-1.16;78.39;100034.76;1690978;84;25716;-80
2021/01/12 05:23:23;;;;;;;90.45;41.98;;;;;;;-1.13;78.61;100027.45;1654735;84;27557;-80
2021/01/12 05:25:53;;;;;;;86.42;38.55;;;;;;;-1.02;78.57;100013.42;1677110;84;25872;-81
2021/01/12 05:28:21;;;;;;;97.97;45.00;;;;;;;-1.02;78.57;100013.42;1667244;84;26075;-81
2021/01/12 05:30:48;;;;;;;92.02;40.73;;;;;;;-0.96;78.80;100011.11;1691416;84;26501;-80
2021/01/12 05:33:20;;;;;;;85.57;40.83;;;;;;;-0.96;78.40;100017.68;1610911;84;26444;-79
2021/01/12 05:35:49;;;;;;;97.85;42.05;;;;;;;-0.97;78.36;100016.03;1653136;84;27649;-79
2021/01/12 05:38:29;;;;;;;;;;;;;;;-0.98;78.46;100018.77;1633748;84;25808;-78
2021/01/12 05:41:00;;;;;;;90.65;36.75;;;;;;;-0.96;78.23;100016.37;1666884;84;25808;-80
2021/01/12 05:43:38;;;;;;;97.75;41.40;;;;;;;-1.07;78.03;100005.09;1660331;85;25827;-80
2021/01/12 05:46:12;;;;;;;95.28;43.63;;;;;;;-0.99;78.37;100003.97;1625884;86;26438;-79
2021/01/12 05:48:44;;;;;;;93.05;42.20;;;;;;;-0.99;77.88;99992.14;1654115;84;28088;-80
2021/01/12 05:51:15;;;;;;;89.65;41.02;;;;;;;-0.98;78.19;99994.64;1642806;84;26171;-79
2021/01/12 05:53:56;;;;;;;85.57;40.65;;;;;;;-0.98;78.32;99985.91;1632106;84;25934;-79
2021/01/12 05:56:27;;;;;;;90.97;40.48;;;;;;;-0.96;78.11;99974.31;1658633;84;25952;-79
2021/01/12 05:58:57;;;;;;;87.95;38.65;;;;;;;-0.98;78.14;99976.23;1632742;84;25740;-79
2021/01/12 06:01:48;;;;;;;97.55;42.03;;;;;;;-0.94;78.15;99967.12;1632644;84;28455;-79
2021/01/12 06:04:15;;;;;;;90.90;40.85;;;;;;;-0.92;78.03;99965.20;1676154;84;25879;-80
2021/01/12 06:06:49;;;;;;;90.72;41.15;;;;;;;-0.91;78.01;99962.94;1630594;84;25964;-80
2021/01/12 06:09:19;;;;;;;93.15;40.03;;;;;;;-0.92;77.86;99966.52;1634791;84;25985;-82
2021/01/12 06:11:51;;;;;;;98.27;40.57;;;;;;;-0.88;78.04;99968.42;1624526;84;25973;-79
2021/01/12 06:14:26;;;;;;;89.70;38.53;;;;;;;-0.87;77.81;99969.60;1673968;84;27614;-79
2021/01/12 06:17:06;;;;;;;94.10;40.40;;;;;;;-0.82;77.94;99964.80;1787514;79;26226;-79
2021/01/12 06:19:38;;;;;;;90.85;38.13;;;;;;;-0.86;78.05;99961.23;1706882;82;26225;-80
2021/01/12 06:22:20;;;;;;;94.25;40.67;;;;;;;-0.85;78.07;99958.95;1736015;80;27323;-79
2021/01/12 06:24:53;;;;;;;89.05;36.83;;;;;;;-0.92;77.63;99949.42;1741910;82;26481;-79
2021/01/12 06:27:32;;;;;;;98.00;41.30;;;;;;;-0.92;77.63;99949.42;1697596;82;25743;-80
2021/01/12 06:30:05;;;;;;;94.52;42.17;;;;;;;-0.92;77.82;99963.08;1706228;82;25890;-79
2021/01/12 06:32:36;;;;;;;88.45;38.83;;;;;;;-0.90;77.69;99960.64;1705894;82;25896;-80
2021/01/12 06:35:09;;;;;;;83.80;36.40;;;;;;;-0.90;77.69;99960.64;1730724;80;28519;-80
2021/01/12 06:37:42;;;;;;;92.65;39.75;;;;;;;-0.90;77.78;99951.44;1663565;80;25776;-80
2021/01/12 06:40:12;;;;;;;85.80;38.60;;;;;;;-0.89;78.00;99949.66;1688859;82;25742;-81
2021/01/12 06:42:41;;;;;;;78.28;36.80;;;;;;;-0.88;78.01;99948.70;1707312;82;26471;-79
2021/01/12 06:45:12;;;;;;;84.83;36.90;;;;;;;-0.92;77.74;99948.63;1740237;80;25769;-78
2021/01/12 06:47:42;;;;;;;79.55;37.83;;;;;;;-0.90;77.90;99948.81;1661929;82;28291;-79
2021/01/12 06:50:16;;;;;;;88.00;38.28;;;;;;;-0.91;77.78;99938.44;1685202;82;25941;-80
2021/01/12 06:52:50;;;;;;;92.17;40.88;;;;;;;-0.94;77.76;99934.27;1726183;81;25872;-79
2021/01/12 06:55:20;;;;;;;88.30;38.02;;;;;;;-0.94;77.97;99924.27;1730141;80;25817;-79
2021/01/12 06:57:54;;;;;;;88.52;37.90;;;;;;;-0.92;77.89;99919.20;1665875;82;25729;-80
2021/01/12 07:00:23;;;;;;;83.55;37.20;;;;;;;-0.92;78.01;99912.63;1702250;82;27470;-80
2021/01/12 07:02:57;;;;;;;92.62;39.67;;;;;;;-0.92;77.88;99909.19;1681619;82;25757;-80
2021/01/12 07:05:40;;;;;;;88.33;38.15;;;;;;;-1.02;77.79;99895.14;1731743;82;25719;-79
2021/01/12 07:08:10;;;;;;;101.38;43.92;;;;;;;-1.02;77.79;99895.14;1674127;82;26481;-80
2021/01/12 07:10:46;;;;;;;76.28;35.80;;;;;;;-1.00;77.64;99906.36;1709649;82;25806;-79
2021/01/12 07:13:18;;;;;;;90.47;40.52;;;;;;;-1.04;77.70;99903.16;1645068;85;28304;-79
2021/01/12 07:15:50;;;;;;;87.10;38.28;;;;;;;-1.08;77.79;99895.67;1670067;83;25950;-79
2021/01/12 07:18:23;;;;;;;87.30;40.25;;;;;;;-1.12;77.89;99895.11;1592300;85;25912;-80
2021/01/12 07:20:52;;;;;;;87.72;39.40;;;;;;;-1.10;78.04;99898.91;1609770;85;25762;-80
2021/01/12 07:23:22;;;;;;;84.50;38.15;;;;;;;-1.10;77.99;99905.01;1662839;84;26684;-80
2021/01/12 07:25:51;;;;;;;81.67;35.60;;;;;;;-1.10;78.04;99902.85;1665387;85;28446;-79
2021/01/12 07:28:23;;;;;;;95.07;42.20;;;;;;;-1.12;78.34;99895.11;1614826;85;25792;-78
2021/01/12 07:30:57;;;;;;;87.62;38.50;;;;;;;-1.15;78.36;99896.67;1658626;84;25773;-78
2021/01/12 07:33:29;;;;;;;94.47;39.90;;;;;;;-1.15;78.36;99896.67;1641652;85;25726;-79
2021/01/12 07:35:59;;;;;;;77.75;32.48;;;;;;;-1.15;78.12;99890.57;1660266;86;26059;-80
2021/01/12 07:38:30;;;;;;;71.15;32.67;;;;;;;-1.16;78.21;99888.92;1638541;86;28445;-81
2021/01/12 07:41:01;;;;;;;86.97;34.75;;;;;;;-1.18;78.04;99877.23;1665490;84;25790;-79
2021/01/12 07:43:31;;;;;;;81.80;36.73;;;;;;;-1.18;78.21;99872.45;1640581;85;26349;-79
2021/01/12 07:46:02;;;;;;;87.45;38.55;;;;;;;-1.19;78.21;99878.19;1675087;83;26039;-81
2021/01/12 07:48:33;;;;;;;105.60;45.48;;;;;;;-1.22;78.20;99873.69;1642368;84;25922;-79
2021/01/12 07:51:02;;;;;;;84.03;37.40;;;;;;;-1.19;78.43;99870.30;1646262;84;27380;-77
2021/01/12 07:53:34;;;;;;;94.77;43.90;;;;;;;-1.16;78.38;99877.94;1651416;84;26189;-79
2021/01/12 07:56:03;;;;;;;83.55;36.98;;;;;;;-1.15;78.23;99866.45;1651692;84;25800;-81
2021/01/12 07:58:32;;;;;;;74.30;33.42;;;;;;;-1.13;78.42;99878.98;1636516;84;26168;-79
2021/01/12 08:01:01;;;;;;;72.78;34.48;;;;;;;-1.12;78.27;99873.24;1652030;84;25730;-78
2021/01/12 08:03:30;;;;;;;91.53;39.20;;;;;;;-1.05;78.53;99865.20;1650289;85;27184;-78
2021/01/12 08:06:10;;;;;;;72.25;35.88;;;;;;;-1.05;78.53;99865.20;1670946;83;25523;-79
2021/01/12 08:08:39;;;;;;;87.45;40.92;;;;;;;-1.01;78.32;99864.81;1632487;83;25826;-79
2021/01/12 08:11:08;;;;;;;83.33;40.83;;;;;;;-0.94;78.60;99873.00;1661679;84;25773;-79
2021/01/12 08:13:38;;;;;;;82.72;39.15;;;;;;;-0.88;78.40;99861.45;1669017;83;26242;-79
2021/01/12 08:16:12;;;;;;;100.90;49.53;;;;;;;-0.82;78.21;99862.73;1681066;83;28403;-78
2021/01/12 08:18:40;;;;;;;73.67;35.48;;;;;;;-0.75;78.16;99860.41;1646682;83;26376;-79
2021/01/12 08:21:09;;;;;;;70.57;33.23;;;;;;;-0.60;78.13;99845.92;1675862;83;26373;-79
2021/01/12 08:23:39;;;;;;;68.23;32.63;;;;;;;-0.60;78.13;99845.92;1684071;83;25775;-79
2021/01/12 08:26:11;;;;;;;50.03;26.05;;;;;;;-0.51;78.05;99844.62;1684406;84;25825;-80
2021/01/12 08:28:39;;;;;;;56.40;25.10;;;;;;;-0.45;77.51;99840.64;1654050;84;27434;-80
2021/01/12 08:31:17;;;;;;;60.05;27.95;;;;;;;-0.45;77.56;99844.08;1649123;84;25739;-80
2021/01/12 08:33:47;;;;;;;59.33;26.05;;;;;;;-0.42;77.28;99841.66;1661827;83;26499;-79
2021/01/12 08:36:18;;;;;;;55.98;25.45;;;;;;;-0.37;77.49;99838.16;1683262;83;25964;-79
2021/01/12 08:38:48;;;;;;;;;;;;;;;-0.35;77.15;99829.64;1639050;83;25849;-79
2021/01/12 08:41:17;;;;;;;55.05;26.02;;;;;;;-0.34;77.28;99821.59;1653206;84;27610;-81
2021/01/12 08:43:48;;;;;;;51.95;22.87;;;;;;;-0.30;77.07;99822.98;1687994;83;25932;-79
2021/01/12 08:46:18;;;;;;;53.10;25.17;;;;;;;-0.25;76.92;99819.95;1639418;83;25690;-80
2021/01/12 08:48:50;;;;;;;50.48;23.98;;;;;;;-0.23;77.00;99815.38;1652533;84;25467;-79
2021/01/12 08:51:20;;;;;;;48.70;21.57;;;;;;;-0.18;77.11;99814.48;1623255;84;26488;-79
2021/01/12 08:53:58;;;;;;;52.85;26.10;;;;;;;-0.13;77.16;99815.73;1655868;84;28248;-79
2021/01/12 08:56:28;;;;;;;46.98;22.40;;;;;;;-0.05;77.13;99811.11;1662224;84;25716;-79
2021/01/12 08:59:06;;;;;;;48.78;23.80;;;;;;;0.00;76.46;99808.39;1621665;83;26435;-80
2021/01/12 09:01:38;;;;;;;54.40;25.60;;;;;;;0.00;76.67;99811.02;1653412;84;25805;-82
2021/01/12 09:04:09;;;;;;;51.05;22.75;;;;;;;0.05;76.90;99798.77;1656258;83;25944;-78
2021/01/12 09:06:38;;;;;;;46.35;23.10;;;;;;;0.11;76.72;99803.46;1661216;84;27449;-80
2021/01/12 09:09:14;;;;;;;48.17;22.42;;;;;;;0.13;76.77;99797.56;1638417;83;25972;-79
2021/01/12 09:11:47;;;;;;;47.20;23.18;;;;;;;0.17;76.59;99797.63;1662031;83;25978;-80
2021/01/12 09:14:20;;;;;;;42.08;22.40;;;;;;;0.18;76.16;99787.94;1653956;84;25637;-80
2021/01/12 09:17:02;;;;;;;43.55;20.70;;;;;;;0.20;76.16;99787.30;1660480;84;25806;-81
2021/01/12 09:19:39;;;;;;;45.73;22.20;;;;;;;0.25;76.22;99782.46;1657336;84;27430;-80
2021/01/12 09:24:56;;;;;;;44.67;21.48;;;;;;;0.38;76.06;99776.41;1793769;77;25642;-78
2021/01/12 09:27:29;;;;;;;45.80;20.23;;;;;;;0.34;75.81;99775.03;1726323;80;25820;-81
2021/01/12 09:29:57;;;;;;;40.45;19.77;;;;;;;0.35;75.88;99765.66;1656526;82;27346;-80
2021/01/12 09:32:34;;;;;;;36.10;16.60;;;;;;;0.33;75.67;99767.61;1746398;80;25956;-80
2021/01/12 09:35:05;;;;;;;44.38;21.05;;;;;;;0.38;75.47;99768.03;1712909;82;26626;-79
2021/01/12 09:37:33;;;;;;;42.78;19.12;;;;;;;0.35;75.53;99760.88;1667049;80;25923;-80
2021/01/12 09:40:01;;;;;;;39.33;19.95;;;;;;;0.38;75.67;99765.39;1708070;82;25709;-81
2021/01/12 09:42:29;;;;;;;42.60;18.98;;;;;;;0.41;75.80;99757.66;1716935;80;28566;-79
2021/01/12 09:44:57;;;;;;;34.25;18.40;;;;;;;0.41;75.45;99750.59;1697399;82;26715;-82
2021/01/12 09:47:24;;;;;;;33.75;17.35;;;;;;;0.39;75.47;99756.50;1683239;80;25735;-78
2021/01/12 09:49:51;;;;;;;30.90;16.35;;;;;;;0.37;75.16;99745.76;1714270;80;25963;-80
2021/01/12 09:52:19;;;;;;;42.15;20.52;;;;;;;0.33;75.33;99745.22;1734485;82;25920;-81
2021/01/12 09:54:46;;;;;;;41.42;19.70;;;;;;;0.30;75.50;99734.16;1674733;82;27531;-80
2021/01/12 09:57:13;;;;;;;41.70;20.25;;;;;;;0.28;75.37;99729.01;1686849;82;26578;-80
2021/01/12 09:59:41;;;;;;;45.90;20.95;;;;;;;0.25;75.42;99732.42;1710921;82;25734;-81
2021/01/12 10:02:09;;;;;;;43.60;21.33;;;;;;;0.27;75.78;99735.27;1708894;82;25839;-79
2021/01/12 10:04:37;;;;;;;38.95;18.52;;;;;;;0.29;75.82;99722.78;1661497;82;26253;-79
2021/01/12 10:07:04;;;;;;;43.48;19.60;;;;;;;0.35;75.30;99717.41;1690237;82;27740;-79
2021/01/12 10:09:32;;;;;;;33.30;17.20;;;;;;;0.36;75.76;99714.66;1709556;82;26487;-78
2021/01/12 10:11:59;;;;;;;38.83;19.62;;;;;;;0.39;75.47;99709.09;1707533;83;25923;-79
2021/01/12 10:14:27;;;;;;;47.62;19.87;;;;;;;0.42;75.50;99704.02;1633893;85;26129;-79
2021/01/12 10:16:54;;;;;;;42.05;21.12;;;;;;;0.42;75.66;99705.34;1631548;84;25797;-79
2021/01/12 10:19:21;;;;;;;35.58;18.37;;;;;;;0.43;75.57;99700.39;1656615;84;27119;-79
2021/01/12 10:21:49;;;;;;;35.83;18.50;;;;;;;0.47;75.50;99692.58;1682193;83;25999;-78
2021/01/12 10:24:17;;;;;;;38.48;20.12;;;;;;;0.49;75.44;99685.35;1640731;84;26659;-79
2021/01/12 10:26:46;;;;;;;41.73;19.30;;;;;;;0.51;75.86;99677.62;1659554;83;26373;-78
2021/01/12 10:29:13;;;;;;;39.05;18.52;;;;;;;0.51;75.86;99677.62;1652814;83;25936;-79
2021/01/12 10:31:44;;;;;;;42.30;19.82;;;;;;;0.53;75.11;99678.34;1673883;83;29101;-79
2021/01/12 10:34:11;;;;;;;34.03;19.00;;;;;;;0.53;75.46;99674.38;1630256;85;26492;-78
2021/01/12 10:36:39;;;;;;;37.58;19.90;;;;;;;0.54;75.44;99662.02;1632671;85;25952;-80
2021/01/12 10:39:07;;;;;;;40.08;21.30;;;;;;;0.56;75.36;99666.65;1637688;83;26005;-80
2021/01/12 10:41:39;;;;;;;36.73;18.82;;;;;;;0.54;75.31;99659.38;1678513;85;25385;-79
2021/01/12 10:44:07;;;;;;;39.20;18.73;;;;;;;0.54;75.51;99652.31;1635075;85;27550;-78
2021/01/12 10:46:35;;;;;;;38.55;19.77;;;;;;;0.57;75.56;99649.40;1633743;83;26347;-79
2021/01/12 10:49:03;;;;;;;37.63;20.40;;;;;;;0.57;75.43;99641.97;1654198;85;26036;-79
2021/01/12 10:51:30;;;;;;;33.25;17.15;;;;;;;0.57;75.54;99641.97;1680484;83;25753;-79
2021/01/12 10:53:58;;;;;;;41.30;20.02;;;;;;;0.56;75.21;99642.45;1649837;83;25894;-79
2021/01/12 10:56:25;;;;;;;36.80;20.10;;;;;;;0.59;75.60;99636.06;1633796;85;28443;-79
2021/01/12 10:58:52;;;;;;;37.88;19.23;;;;;;;0.60;75.56;99634.59;1651194;85;26271;-78
2021/01/12 11:01:21;;;;;;;36.53;17.65;;;;;;;0.62;75.42;99627.88;1662440;85;25782;-81
2021/01/12 11:03:49;;;;;;;40.85;18.87;;;;;;;0.63;75.37;99625.09;1621170;85;25831;-78
2021/01/12 11:06:19;;;;;;;39.80;21.00;;;;;;;0.64;75.41;99620.66;1621512;85;26111;-81
2021/01/12 11:08:48;;;;;;;42.38;18.98;;;;;;;0.66;75.53;99620.02;1649901;85;27190;-78
2021/01/12 11:11:22;;;;;;;43.23;21.80;;;;;;;0.67;75.56;99615.91;1671397;85;25411;-79
2021/01/12 11:13:51;;;;;;;39.00;17.87;;;;;;;0.69;75.78;99611.31;1653623;83;26005;-78
2021/01/12 11:16:18;;;;;;;42.43;23.07;;;;;;;0.72;75.84;99601.81;1648680;83;25897;-79
2021/01/12 11:18:46;;;;;;;39.80;22.07;;;;;;;0.76;75.60;99597.89;1628996;83;25840;-78
2021/01/12 11:21:14;;;;;;;36.05;17.70;;;;;;;0.78;75.68;99595.94;1678265;83;28522;-78
2021/01/12 11:23:41;;;;;;;36.55;18.75;;;;;;;0.80;75.69;99597.09;1641965;85;25863;-79
2021/01/12 11:26:11;;;;;;;38.80;19.40;;;;;;;0.81;75.36;99590.03;1616776;85;25876;-80
2021/01/12 11:28:39;;;;;;;32.40;16.77;;;;;;;0.86;75.39;99591.70;1627977;86;25883;-78
2021/01/12 11:31:07;;;;;;;36.15;20.08;;;;;;;0.91;75.55;99582.87;1681079;84;25421;-79